sensor_id;sensor_type;location;lat;lon;timestamp;temperature;humidity
49242;DHT22;35079;52.704;13.814;2023-01-15T00:00:19;8.40;99.90
49242;DHT22;35079;52.704;13.814;2023-01-15T00:02:45;8.30;99.90
49242;DHT22;35079;52.704;13.814;2023-01-15T00:05:10;8.40;99.90
49242;DHT22;35079;52.704;13.814;2023-01-15T00:07:36;8.50;99.90
49242;DHT22;35079;52.704;13.814;2023-01-15T00:10:02;8.40;99.90
49242;DHT22;35079;52.704;13.814;2023-01-15T00:12:27;8.40;99.90
49242;DHT22;35079;52.704;13.814;2023-01-15T00:14:53;8.50;99.90
49242;DHT22;35079;52.704;13.814;2023-01-15T00:17:18;8.60;99.90
49242;DHT22;35079;52.704;13.814;2023-01-15T00:19:45;8.50;99.90
49242;DHT22;35079;52.704;13.814;2023-01-15T00:22:11;8.50;99.90
49242;DHT22;35079;52.704;13.814;2023-01-15T00:24:36;8.60;99.90
49242;DHT22;35079;52.704;13.814;2023-01-15T00:27:20;8.50;99.90
49242;DHT22;35079;52.704;13.814;2023-01-15T00:30:11;8.60;99.90
49242;DHT22;35079;52.704;13.814;2023-01-15T00:32:37;8.50;99.90
49242;DHT22;35079;52.704;13.814;2023-01-15T00:35:03;8.60;99.90
49242;DHT22;35079;52.704;13.814;2023-01-15T00:37:29;8.50;99.90
49242;DHT22;35079;52.704;13.814;2023-01-15T00:39:55;8.60;99.90
49242;DHT22;35079;52.704;13.814;2023-01-15T00:42:20;8.60;99.90
49242;DHT22;35079;52.704;13.814;2023-01-15T00:44:46;8.60;99.90
49242;DHT22;35079;52.704;13.814;2023-01-15T00:47:12;8.60;99.90
49242;DHT22;35079;52.704;13.814;2023-01-15T00:49:41;8.60;99.90
49242;DHT22;35079;52.704;13.814;2023-01-15T00:52:08;8.60;99.90
49242;DHT22;35079;52.704;13.814;2023-01-15T00:54:33;8.70;99.90
49242;DHT22;35079;52.704;13.814;2023-01-15T00:56:59;8.70;99.90
49242;DHT22;35079;52.704;13.814;2023-01-15T00:59:24;8.50;99.90
49242;DHT22;35079;52.704;13.814;2023-01-15T01:01:50;8.70;99.90
49242;DHT22;35079;52.704;13.814;2023-01-15T01:04:16;8.70;99.90
49242;DHT22;35079;52.704;13.814;2023-01-15T01:06:42;8.70;99.90
49242;DHT22;35079;52.704;13.814;2023-01-15T01:09:13;8.70;99.90
49242;DHT22;35079;52.704;13.814;2023-01-15T01:11:39;8.60;99.90
49242;DHT22;35079;52.704;13.814;2023-01-15T01:14:05;8.60;99.90
49242;DHT22;35079;52.704;13.814;2023-01-15T01:16:34;8.70;99.90
49242;DHT22;35079;52.704;13.814;2023-01-15T01:19:02;8.60;99.90
49242;DHT22;35079;52.704;13.814;2023-01-15T01:21:28;8.60;99.90
49242;DHT22;35079;52.704;13.814;2023-01-15T01:23:56;8.70;99.90
49242;DHT22;35079;52.704;13.814;2023-01-15T01:26:22;8.70;99.90
49242;DHT22;35079;52.704;13.814;2023-01-15T01:28:49;8.70;99.90
49242;DHT22;35079;52.704;13.814;2023-01-15T01:31:16;8.70;99.90
49242;DHT22;35079;52.704;13.814;2023-01-15T01:33:42;8.60;99.90
49242;DHT22;35079;52.704;13.814;2023-01-15T01:36:07;8.70;99.90
49242;DHT22;35079;52.704;13.814;2023-01-15T01:38:33;8.60;99.90
49242;DHT22;35079;52.704;13.814;2023-01-15T01:40:59;8.80;99.90
49242;DHT22;35079;52.704;13.814;2023-01-15T01:43:27;8.80;99.90
49242;DHT22;35079;52.704;13.814;2023-01-15T01:45:53;8.70;99.90
49242;DHT22;35079;52.704;13.814;2023-01-15T01:48:24;8.80;99.90
49242;DHT22;35079;52.704;13.814;2023-01-15T01:50:52;8.90;99.90
49242;DHT22;35079;52.704;13.814;2023-01-15T01:53:21;8.90;99.90
49242;DHT22;35079;52.704;13.814;2023-01-15T01:55:48;8.80;99.90
49242;DHT22;35079;52.704;13.814;2023-01-15T01:58:16;8.90;99.90
49242;DHT22;35079;52.704;13.814;2023-01-15T02:00:46;8.90;99.90
49242;DHT22;35079;52.704;13.814;2023-01-15T02:03:12;8.80;99.90
49242;DHT22;35079;52.704;13.814;2023-01-15T02:05:45;8.90;99.90
49242;DHT22;35079;52.704;13.814;2023-01-15T02:08:12;8.90;99.90
49242;DHT22;35079;52.704;13.814;2023-01-15T02:10:37;8.80;99.90
49242;DHT22;35079;52.704;13.814;2023-01-15T02:15:49;9.00;99.90
49242;DHT22;35079;52.704;13.814;2023-01-15T02:18:49;9.00;99.90
49242;DHT22;35079;52.704;13.814;2023-01-15T02:21:55;8.90;99.90
49242;DHT22;35079;52.704;13.814;2023-01-15T02:27:19;8.90;99.90
49242;DHT22;35079;52.704;13.814;2023-01-15T02:34:58;8.90;99.90
49242;DHT22;35079;52.704;13.814;2023-01-15T02:37:28;8.80;99.90
49242;DHT22;35079;52.704;13.814;2023-01-15T02:39:55;8.80;99.90
49242;DHT22;35079;52.704;13.814;2023-01-15T02:42:24;8.90;99.90
49242;DHT22;35079;52.704;13.814;2023-01-15T02:44:52;8.90;99.90
49242;DHT22;35079;52.704;13.814;2023-01-15T02:47:23;8.80;99.90
49242;DHT22;35079;52.704;13.814;2023-01-15T02:49:53;8.90;99.90
49242;DHT22;35079;52.704;13.814;2023-01-15T02:52:33;8.80;99.90
49242;DHT22;35079;52.704;13.814;2023-01-15T02:55:06;8.90;99.90
49242;DHT22;35079;52.704;13.814;2023-01-15T02:57:36;8.80;99.90
49242;DHT22;35079;52.704;13.814;2023-01-15T03:00:05;8.80;99.90
49242;DHT22;35079;52.704;13.814;2023-01-15T03:02:36;8.80;99.90
49242;DHT22;35079;52.704;13.814;2023-01-15T03:05:12;8.80;99.90
49242;DHT22;35079;52.704;13.814;2023-01-15T03:07:47;9.00;99.90
49242;DHT22;35079;52.704;13.814;2023-01-15T03:10:14;9.00;99.90
49242;DHT22;35079;52.704;13.814;2023-01-15T03:12:49;8.80;99.90
49242;DHT22;35079;52.704;13.814;2023-01-15T03:15:41;8.90;99.90
49242;DHT22;35079;52.704;13.814;2023-01-15T03:18:28;8.80;99.90
49242;DHT22;35079;52.704;13.814;2023-01-15T03:21:01;8.90;99.90
49242;DHT22;35079;52.704;13.814;2023-01-15T03:23:28;8.90;99.90
49242;DHT22;35079;52.704;13.814;2023-01-15T03:25:55;8.90;99.90
49242;DHT22;35079;52.704;13.814;2023-01-15T03:28:25;8.90;99.90
49242;DHT22;35079;52.704;13.814;2023-01-15T03:30:52;8.90;99.90
49242;DHT22;35079;52.704;13.814;2023-01-15T03:33:18;9.00;99.90
49242;DHT22;35079;52.704;13.814;2023-01-15T03:35:53;9.00;99.90
49242;DHT22;35079;52.704;13.814;2023-01-15T03:38:42;8.90;99.90
49242;DHT22;35079;52.704;13.814;2023-01-15T03:41:26;8.90;99.90
49242;DHT22;35079;52.704;13.814;2023-01-15T03:49:37;8.80;99.90
49242;DHT22;35079;52.704;13.814;2023-01-15T03:52:26;8.80;99.90
49242;DHT22;35079;52.704;13.814;2023-01-15T03:55:14;8.90;99.90
49242;DHT22;35079;52.704;13.814;2023-01-15T03:58:03;8.80;99.90
49242;DHT22;35079;52.704;13.814;2023-01-15T04:00:37;8.80;99.90
49242;DHT22;35079;52.704;13.814;2023-01-15T04:03:04;8.80;99.90
49242;DHT22;35079;52.704;13.814;2023-01-15T04:05:31;8.90;99.90
49242;DHT22;35079;52.704;13.814;2023-01-15T04:07:58;8.90;99.90
49242;DHT22;35079;52.704;13.814;2023-01-15T04:10:24;8.90;99.90
49242;DHT22;35079;52.704;13.814;2023-01-15T04:12:50;9.00;99.90
49242;DHT22;35079;52.704;13.814;2023-01-15T04:15:16;9.00;99.90
49242;DHT22;35079;52.704;13.814;2023-01-15T04:17:41;9.00;99.90
49242;DHT22;35079;52.704;13.814;2023-01-15T04:20:08;9.00;99.90
49242;DHT22;35079;52.704;13.814;2023-01-15T04:22:34;8.90;99.90
49242;DHT22;35079;52.704;13.814;2023-01-15T04:25:01;8.90;99.90
49242;DHT22;35079;52.704;13.814;2023-01-15T04:27:27;8.70;99.90
49242;DHT22;35079;52.704;13.814;2023-01-15T04:29:52;8.60;99.90
49242;DHT22;35079;52.704;13.814;2023-01-15T04:32:18;8.50;99.90
49242;DHT22;35079;52.704;13.814;2023-01-15T04:34:44;8.30;99.90
49242;DHT22;35079;52.704;13.814;2023-01-15T04:37:09;8.30;99.90
49242;DHT22;35079;52.704;13.814;2023-01-15T04:39:35;8.20;99.90
49242;DHT22;35079;52.704;13.814;2023-01-15T04:42:01;8.00;99.90
49242;DHT22;35079;52.704;13.814;2023-01-15T04:44:58;8.00;99.90
49242;DHT22;35079;52.704;13.814;2023-01-15T04:47:24;8.10;99.90
49242;DHT22;35079;52.704;13.814;2023-01-15T04:49:50;7.80;99.90
49242;DHT22;35079;52.704;13.814;2023-01-15T04:52:16;7.90;99.90
49242;DHT22;35079;52.704;13.814;2023-01-15T04:54:41;7.90;99.90
49242;DHT22;35079;52.704;13.814;2023-01-15T04:57:07;7.70;99.90
49242;DHT22;35079;52.704;13.814;2023-01-15T04:59:32;7.60;99.90
49242;DHT22;35079;52.704;13.814;2023-01-15T05:01:58;7.70;99.90
49242;DHT22;35079;52.704;13.814;2023-01-15T05:04:24;7.50;99.90
49242;DHT22;35079;52.704;13.814;2023-01-15T05:06:49;7.50;99.90
49242;DHT22;35079;52.704;13.814;2023-01-15T05:09:16;7.60;99.90
49242;DHT22;35079;52.704;13.814;2023-01-15T05:11:41;7.40;99.90
49242;DHT22;35079;52.704;13.814;2023-01-15T05:14:07;7.40;99.90
49242;DHT22;35079;52.704;13.814;2023-01-15T05:16:33;7.40;99.90
49242;DHT22;35079;52.704;13.814;2023-01-15T05:19:02;7.20;99.90
49242;DHT22;35079;52.704;13.814;2023-01-15T05:21:34;7.20;99.90
49242;DHT22;35079;52.704;13.814;2023-01-15T05:24:01;7.10;99.90
49242;DHT22;35079;52.704;13.814;2023-01-15T05:26:30;7.00;99.90
49242;DHT22;35079;52.704;13.814;2023-01-15T05:28:57;7.00;99.90
49242;DHT22;35079;52.704;13.814;2023-01-15T05:31:23;6.90;99.90
49242;DHT22;35079;52.704;13.814;2023-01-15T05:33:50;6.60;99.90
49242;DHT22;35079;52.704;13.814;2023-01-15T05:36:19;6.60;99.90
49242;DHT22;35079;52.704;13.814;2023-01-15T05:38:45;6.40;99.90
49242;DHT22;35079;52.704;13.814;2023-01-15T05:41:13;6.40;99.90
49242;DHT22;35079;52.704;13.814;2023-01-15T05:44:01;6.40;99.90
49242;DHT22;35079;52.704;13.814;2023-01-15T05:46:27;6.30;99.90
49242;DHT22;35079;52.704;13.814;2023-01-15T05:48:53;6.40;99.90
49242;DHT22;35079;52.704;13.814;2023-01-15T05:51:19;6.30;99.90
49242;DHT22;35079;52.704;13.814;2023-01-15T05:53:44;6.20;99.90
49242;DHT22;35079;52.704;13.814;2023-01-15T05:56:10;6.20;99.90
49242;DHT22;35079;52.704;13.814;2023-01-15T05:58:36;6.20;99.90
49242;DHT22;35079;52.704;13.814;2023-01-15T06:01:06;6.10;99.90
49242;DHT22;35079;52.704;13.814;2023-01-15T06:03:32;6.00;99.90
49242;DHT22;35079;52.704;13.814;2023-01-15T06:05:58;5.90;99.90
49242;DHT22;35079;52.704;13.814;2023-01-15T06:08:24;6.10;99.90
49242;DHT22;35079;52.704;13.814;2023-01-15T06:10:49;6.00;99.90
49242;DHT22;35079;52.704;13.814;2023-01-15T06:13:16;6.10;99.90
49242;DHT22;35079;52.704;13.814;2023-01-15T06:15:43;6.00;99.90
49242;DHT22;35079;52.704;13.814;2023-01-15T06:18:09;6.10;99.90
49242;DHT22;35079;52.704;13.814;2023-01-15T06:20:41;6.10;99.90
49242;DHT22;35079;52.704;13.814;2023-01-15T06:23:07;6.00;99.90
49242;DHT22;35079;52.704;13.814;2023-01-15T06:25:34;5.90;99.90
49242;DHT22;35079;52.704;13.814;2023-01-15T06:28:05;5.90;99.90
49242;DHT22;35079;52.704;13.814;2023-01-15T06:30:34;5.90;99.90
49242;DHT22;35079;52.704;13.814;2023-01-15T06:33:01;5.80;99.90
49242;DHT22;35079;52.704;13.814;2023-01-15T06:35:27;5.80;99.90
49242;DHT22;35079;52.704;13.814;2023-01-15T06:37:53;6.00;99.90
49242;DHT22;35079;52.704;13.814;2023-01-15T06:40:18;5.80;99.90
49242;DHT22;35079;52.704;13.814;2023-01-15T06:42:44;5.80;99.90
49242;DHT22;35079;52.704;13.814;2023-01-15T06:45:36;5.90;99.90
49242;DHT22;35079;52.704;13.814;2023-01-15T06:48:22;5.80;99.90
49242;DHT22;35079;52.704;13.814;2023-01-15T06:50:47;5.90;99.90
49242;DHT22;35079;52.704;13.814;2023-01-15T06:53:13;5.90;99.90
49242;DHT22;35079;52.704;13.814;2023-01-15T06:55:39;5.90;99.90
49242;DHT22;35079;52.704;13.814;2023-01-15T06:58:04;6.00;99.90
49242;DHT22;35079;52.704;13.814;2023-01-15T07:00:44;5.90;99.90
49242;DHT22;35079;52.704;13.814;2023-01-15T07:03:17;5.80;99.90
49242;DHT22;35079;52.704;13.814;2023-01-15T07:05:43;6.00;99.90
49242;DHT22;35079;52.704;13.814;2023-01-15T07:08:08;6.00;99.90
49242;DHT22;35079;52.704;13.814;2023-01-15T07:10:34;6.10;99.90
49242;DHT22;35079;52.704;13.814;2023-01-15T07:13:00;5.90;99.90
49242;DHT22;35079;52.704;13.814;2023-01-15T07:15:26;6.10;99.90
49242;DHT22;35079;52.704;13.814;2023-01-15T07:17:55;6.00;99.90
49242;DHT22;35079;52.704;13.814;2023-01-15T07:20:21;6.00;99.90
49242;DHT22;35079;52.704;13.814;2023-01-15T07:22:50;5.90;99.90
49242;DHT22;35079;52.704;13.814;2023-01-15T07:25:45;6.00;99.90
49242;DHT22;35079;52.704;13.814;2023-01-15T07:28:11;5.90;99.90
49242;DHT22;35079;52.704;13.814;2023-01-15T07:30:36;5.90;99.90
49242;DHT22;35079;52.704;13.814;2023-01-15T07:33:02;5.80;99.90
49242;DHT22;35079;52.704;13.814;2023-01-15T07:35:28;5.90;99.90
49242;DHT22;35079;52.704;13.814;2023-01-15T07:37:55;5.80;99.90
49242;DHT22;35079;52.704;13.814;2023-01-15T07:40:48;5.90;99.90
49242;DHT22;35079;52.704;13.814;2023-01-15T07:43:34;5.80;99.90
49242;DHT22;35079;52.704;13.814;2023-01-15T07:46:18;5.80;99.90
49242;DHT22;35079;52.704;13.814;2023-01-15T07:49:02;5.90;99.90
49242;DHT22;35079;52.704;13.814;2023-01-15T07:51:48;5.90;99.90
49242;DHT22;35079;52.704;13.814;2023-01-15T07:54:14;5.70;99.90
49242;DHT22;35079;52.704;13.814;2023-01-15T07:56:39;5.80;99.90
49242;DHT22;35079;52.704;13.814;2023-01-15T07:59:05;5.90;99.90
49242;DHT22;35079;52.704;13.814;2023-01-15T08:01:31;5.90;99.90
49242;DHT22;35079;52.704;13.814;2023-01-15T08:03:56;5.80;99.90
49242;DHT22;35079;52.704;13.814;2023-01-15T08:06:22;5.70;99.90
49242;DHT22;35079;52.704;13.814;2023-01-15T08:08:47;5.70;99.90
49242;DHT22;35079;52.704;13.814;2023-01-15T08:11:13;5.80;99.90
49242;DHT22;35079;52.704;13.814;2023-01-15T08:13:57;5.80;99.90
49242;DHT22;35079;52.704;13.814;2023-01-15T08:16:41;5.70;99.90
49242;DHT22;35079;52.704;13.814;2023-01-15T08:19:07;5.70;99.90
49242;DHT22;35079;52.704;13.814;2023-01-15T08:21:32;5.70;99.90
49242;DHT22;35079;52.704;13.814;2023-01-15T08:23:58;5.70;99.90
49242;DHT22;35079;52.704;13.814;2023-01-15T08:26:24;5.70;99.90
49242;DHT22;35079;52.704;13.814;2023-01-15T08:28:49;5.90;99.90
49242;DHT22;35079;52.704;13.814;2023-01-15T08:31:15;5.70;99.90
49242;DHT22;35079;52.704;13.814;2023-01-15T08:33:40;5.70;99.90
49242;DHT22;35079;52.704;13.814;2023-01-15T08:36:06;5.70;99.90
49242;DHT22;35079;52.704;13.814;2023-01-15T08:38:33;5.70;99.90
49242;DHT22;35079;52.704;13.814;2023-01-15T08:40:58;5.80;99.90
49242;DHT22;35079;52.704;13.814;2023-01-15T08:43:25;5.90;99.90
49242;DHT22;35079;52.704;13.814;2023-01-15T08:45:51;5.80;99.90
49242;DHT22;35079;52.704;13.814;2023-01-15T08:48:17;5.90;99.90
49242;DHT22;35079;52.704;13.814;2023-01-15T08:50:43;5.90;99.90
49242;DHT22;35079;52.704;13.814;2023-01-15T08:53:09;6.00;99.90
49242;DHT22;35079;52.704;13.814;2023-01-15T08:55:36;5.80;99.90
49242;DHT22;35079;52.704;13.814;2023-01-15T08:58:01;6.00;99.90
49242;DHT22;35079;52.704;13.814;2023-01-15T09:00:27;5.90;99.90
49242;DHT22;35079;52.704;13.814;2023-01-15T09:02:52;6.10;99.90
49242;DHT22;35079;52.704;13.814;2023-01-15T09:05:18;6.00;99.90
49242;DHT22;35079;52.704;13.814;2023-01-15T09:07:44;6.00;99.90
49242;DHT22;35079;52.704;13.814;2023-01-15T09:10:09;6.00;99.90
49242;DHT22;35079;52.704;13.814;2023-01-15T09:12:35;6.00;99.90
49242;DHT22;35079;52.704;13.814;2023-01-15T09:15:01;6.20;99.90
49242;DHT22;35079;52.704;13.814;2023-01-15T09:17:27;6.10;99.90
49242;DHT22;35079;52.704;13.814;2023-01-15T09:19:52;6.10;99.90
49242;DHT22;35079;52.704;13.814;2023-01-15T09:22:18;6.30;99.90
49242;DHT22;35079;52.704;13.814;2023-01-15T09:24:43;6.20;99.90
49242;DHT22;35079;52.704;13.814;2023-01-15T09:27:11;6.30;99.90
49242;DHT22;35079;52.704;13.814;2023-01-15T09:29:36;6.20;99.90
49242;DHT22;35079;52.704;13.814;2023-01-15T09:32:02;6.30;99.90
49242;DHT22;35079;52.704;13.814;2023-01-15T09:34:28;6.30;99.90
49242;DHT22;35079;52.704;13.814;2023-01-15T09:36:53;6.30;99.90
49242;DHT22;35079;52.704;13.814;2023-01-15T09:39:19;6.40;99.90
49242;DHT22;35079;52.704;13.814;2023-01-15T09:42:21;6.30;99.90
49242;DHT22;35079;52.704;13.814;2023-01-15T09:47:50;6.40;99.90
49242;DHT22;35079;52.704;13.814;2023-01-15T09:55:48;6.50;99.90
49242;DHT22;35079;52.704;13.814;2023-01-15T09:58:19;6.60;99.90
49242;DHT22;35079;52.704;13.814;2023-01-15T10:00:49;6.50;99.90
49242;DHT22;35079;52.704;13.814;2023-01-15T10:06:32;6.60;99.90
49242;DHT22;35079;52.704;13.814;2023-01-15T10:09:11;6.80;99.90
49242;DHT22;35079;52.704;13.814;2023-01-15T10:11:53;6.60;99.90
49242;DHT22;35079;52.704;13.814;2023-01-15T10:14:57;6.70;99.90
49242;DHT22;35079;52.704;13.814;2023-01-15T10:17:55;6.70;99.90
49242;DHT22;35079;52.704;13.814;2023-01-15T10:20:43;6.90;99.90
49242;DHT22;35079;52.704;13.814;2023-01-15T10:26:38;6.90;99.90
49242;DHT22;35079;52.704;13.814;2023-01-15T10:43:52;7.00;99.90
49242;DHT22;35079;52.704;13.814;2023-01-15T10:46:23;7.00;99.90
49242;DHT22;35079;52.704;13.814;2023-01-15T10:51:27;7.10;99.90
49242;DHT22;35079;52.704;13.814;2023-01-15T10:54:01;7.20;99.90
49242;DHT22;35079;52.704;13.814;2023-01-15T11:02:39;7.30;99.90
49242;DHT22;35079;52.704;13.814;2023-01-15T11:05:15;7.10;99.90
49242;DHT22;35079;52.704;13.814;2023-01-15T11:07:43;7.10;99.90
49242;DHT22;35079;52.704;13.814;2023-01-15T11:10:13;7.10;99.90
49242;DHT22;35079;52.704;13.814;2023-01-15T11:12:50;7.10;99.90
49242;DHT22;35079;52.704;13.814;2023-01-15T11:15:34;7.00;99.90
49242;DHT22;35079;52.704;13.814;2023-01-15T11:18:27;7.20;99.90
49242;DHT22;35079;52.704;13.814;2023-01-15T11:21:15;7.10;99.90
49242;DHT22;35079;52.704;13.814;2023-01-15T11:23:42;7.00;99.90
49242;DHT22;35079;52.704;13.814;2023-01-15T11:26:08;7.20;99.90
49242;DHT22;35079;52.704;13.814;2023-01-15T11:28:36;7.00;99.90
49242;DHT22;35079;52.704;13.814;2023-01-15T11:31:05;7.20;99.90
49242;DHT22;35079;52.704;13.814;2023-01-15T11:33:32;7.20;99.90
49242;DHT22;35079;52.704;13.814;2023-01-15T11:36:00;7.30;99.90
49242;DHT22;35079;52.704;13.814;2023-01-15T11:38:41;7.20;99.90
49242;DHT22;35079;52.704;13.814;2023-01-15T11:41:21;7.10;99.90
49242;DHT22;35079;52.704;13.814;2023-01-15T11:43:57;7.10;99.90
49242;DHT22;35079;52.704;13.814;2023-01-15T11:46:45;7.00;99.90
49242;DHT22;35079;52.704;13.814;2023-01-15T11:49:29;7.10;99.90
49242;DHT22;35079;52.704;13.814;2023-01-15T11:52:18;7.10;99.90
49242;DHT22;35079;52.704;13.814;2023-01-15T11:54:50;7.10;99.90
49242;DHT22;35079;52.704;13.814;2023-01-15T11:57:29;7.10;99.90
49242;DHT22;35079;52.704;13.814;2023-01-15T11:59:56;7.10;99.90
49242;DHT22;35079;52.704;13.814;2023-01-15T12:02:30;7.00;99.90
49242;DHT22;35079;52.704;13.814;2023-01-15T12:05:00;7.20;99.90
49242;DHT22;35079;52.704;13.814;2023-01-15T12:07:28;7.10;99.90
49242;DHT22;35079;52.704;13.814;2023-01-15T12:32:46;7.00;99.90
49242;DHT22;35079;52.704;13.814;2023-01-15T12:35:42;7.10;99.90
49242;DHT22;35079;52.704;13.814;2023-01-15T12:38:15;7.00;99.90
49242;DHT22;35079;52.704;13.814;2023-01-15T12:40:58;7.10;99.90
49242;DHT22;35079;52.704;13.814;2023-01-15T12:43:26;7.00;99.90
49242;DHT22;35079;52.704;13.814;2023-01-15T12:49:30;7.10;99.90
49242;DHT22;35079;52.704;13.814;2023-01-15T12:52:09;7.00;99.90
49242;DHT22;35079;52.704;13.814;2023-01-15T12:54:46;6.90;99.90
49242;DHT22;35079;52.704;13.814;2023-01-15T12:57:29;6.90;99.90
49242;DHT22;35079;52.704;13.814;2023-01-15T13:00:30;7.10;99.90
49242;DHT22;35079;52.704;13.814;2023-01-15T13:03:18;7.00;99.90
49242;DHT22;35079;52.704;13.814;2023-01-15T13:06:04;7.00;99.90
49242;DHT22;35079;52.704;13.814;2023-01-15T13:08:42;6.90;99.90
49242;DHT22;35079;52.704;13.814;2023-01-15T13:11:11;6.70;99.90
49242;DHT22;35079;52.704;13.814;2023-01-15T13:13:41;6.90;99.90
49242;DHT22;35079;52.704;13.814;2023-01-15T13:19:13;6.80;99.90
49242;DHT22;35079;52.704;13.814;2023-01-15T13:21:43;6.90;99.90
49242;DHT22;35079;52.704;13.814;2023-01-15T13:27:33;6.80;99.90
49242;DHT22;35079;52.704;13.814;2023-01-15T13:35:50;6.90;99.90
49242;DHT22;35079;52.704;13.814;2023-01-15T13:38:23;6.90;99.90
49242;DHT22;35079;52.704;13.814;2023-01-15T13:40:52;6.90;99.90
49242;DHT22;35079;52.704;13.814;2023-01-15T13:43:37;6.80;99.90
49242;DHT22;35079;52.704;13.814;2023-01-15T13:46:07;6.60;99.90
49242;DHT22;35079;52.704;13.814;2023-01-15T13:48:49;6.70;99.90
49242;DHT22;35079;52.704;13.814;2023-01-15T13:51:33;6.60;99.90
49242;DHT22;35079;52.704;13.814;2023-01-15T13:54:13;6.50;99.90
49242;DHT22;35079;52.704;13.814;2023-01-15T13:56:41;6.40;99.90
49242;DHT22;35079;52.704;13.814;2023-01-15T13:59:37;6.50;99.90
49242;DHT22;35079;52.704;13.814;2023-01-15T14:02:27;6.30;99.90
49242;DHT22;35079;52.704;13.814;2023-01-15T14:04:53;6.30;99.90
49242;DHT22;35079;52.704;13.814;2023-01-15T14:07:29;6.20;99.90
49242;DHT22;35079;52.704;13.814;2023-01-15T14:10:51;6.20;99.90
49242;DHT22;35079;52.704;13.814;2023-01-15T14:12:57;6.20;99.90
49242;DHT22;35079;52.704;13.814;2023-01-15T14:18:54;6.40;99.90
49242;DHT22;35079;52.704;13.814;2023-01-15T14:24:20;6.40;99.90
49242;DHT22;35079;52.704;13.814;2023-01-15T14:27:13;6.60;99.90
49242;DHT22;35079;52.704;13.814;2023-01-15T14:29:46;6.40;99.90
49242;DHT22;35079;52.704;13.814;2023-01-15T14:35:17;6.30;99.90
49242;DHT22;35079;52.704;13.814;2023-01-15T14:37:48;6.30;99.90
49242;DHT22;35079;52.704;13.814;2023-01-15T14:40:22;6.30;99.90
49242;DHT22;35079;52.704;13.814;2023-01-15T14:42:51;6.20;99.90
49242;DHT22;35079;52.704;13.814;2023-01-15T14:45:40;6.30;99.90
49242;DHT22;35079;52.704;13.814;2023-01-15T14:48:41;6.20;99.90
49242;DHT22;35079;52.704;13.814;2023-01-15T14:51:14;6.30;99.90
49242;DHT22;35079;52.704;13.814;2023-01-15T14:56:19;6.20;99.90
49242;DHT22;35079;52.704;13.814;2023-01-15T15:03:53;6.20;99.90
49242;DHT22;35079;52.704;13.814;2023-01-15T15:06:20;6.10;99.90
49242;DHT22;35079;52.704;13.814;2023-01-15T15:08:48;6.20;99.90
49242;DHT22;35079;52.704;13.814;2023-01-15T15:11:20;6.20;99.90
49242;DHT22;35079;52.704;13.814;2023-01-15T15:14:08;6.00;99.90
49242;DHT22;35079;52.704;13.814;2023-01-15T15:16:41;6.00;99.90
49242;DHT22;35079;52.704;13.814;2023-01-15T15:19:17;6.00;99.90
49242;DHT22;35079;52.704;13.814;2023-01-15T15:21:46;6.00;99.90
49242;DHT22;35079;52.704;13.814;2023-01-15T15:24:22;6.00;99.90
49242;DHT22;35079;52.704;13.814;2023-01-15T15:26:49;6.10;99.90
49242;DHT22;35079;52.704;13.814;2023-01-15T15:29:18;6.10;99.90
49242;DHT22;35079;52.704;13.814;2023-01-15T15:31:56;6.00;99.90
49242;DHT22;35079;52.704;13.814;2023-01-15T15:34:30;5.90;99.90
49242;DHT22;35079;52.704;13.814;2023-01-15T15:37:00;5.90;99.90
49242;DHT22;35079;52.704;13.814;2023-01-15T15:42:26;5.70;99.90
49242;DHT22;35079;52.704;13.814;2023-01-15T15:45:22;5.70;99.90
49242;DHT22;35079;52.704;13.814;2023-01-15T15:48:17;5.80;99.90
49242;DHT22;35079;52.704;13.814;2023-01-15T15:51:02;5.70;99.90
49242;DHT22;35079;52.704;13.814;2023-01-15T15:53:29;5.50;99.90
49242;DHT22;35079;52.704;13.814;2023-01-15T15:55:58;5.60;99.90
49242;DHT22;35079;52.704;13.814;2023-01-15T15:58:33;5.40;99.90
49242;DHT22;35079;52.704;13.814;2023-01-15T16:01:00;5.40;99.90
49242;DHT22;35079;52.704;13.814;2023-01-15T16:03:28;5.50;99.90
49242;DHT22;35079;52.704;13.814;2023-01-15T16:05:59;5.40;99.90
49242;DHT22;35079;52.704;13.814;2023-01-15T16:08:26;5.50;99.90
49242;DHT22;35079;52.704;13.814;2023-01-15T16:10:54;5.30;99.90
49242;DHT22;35079;52.704;13.814;2023-01-15T16:13:30;5.40;99.90
49242;DHT22;35079;52.704;13.814;2023-01-15T16:15:58;5.30;99.90
49242;DHT22;35079;52.704;13.814;2023-01-15T16:18:35;5.20;99.90
49242;DHT22;35079;52.704;13.814;2023-01-15T16:21:07;5.40;99.90
49242;DHT22;35079;52.704;13.814;2023-01-15T16:23:34;5.20;99.90
49242;DHT22;35079;52.704;13.814;2023-01-15T16:26:10;5.10;99.90
49242;DHT22;35079;52.704;13.814;2023-01-15T16:28:45;5.10;99.90
49242;DHT22;35079;52.704;13.814;2023-01-15T16:31:16;5.20;99.90
49242;DHT22;35079;52.704;13.814;2023-01-15T16:33:43;5.20;99.90
49242;DHT22;35079;52.704;13.814;2023-01-15T16:36:09;5.00;99.90
49242;DHT22;35079;52.704;13.814;2023-01-15T16:38:47;5.10;99.90
49242;DHT22;35079;52.704;13.814;2023-01-15T16:41:27;5.00;99.90
49242;DHT22;35079;52.704;13.814;2023-01-15T16:44:00;4.90;99.90
49242;DHT22;35079;52.704;13.814;2023-01-15T16:46:32;5.00;99.90
49242;DHT22;35079;52.704;13.814;2023-01-15T16:49:23;4.80;99.90
49242;DHT22;35079;52.704;13.814;2023-01-15T16:51:50;5.00;99.90
49242;DHT22;35079;52.704;13.814;2023-01-15T16:57:04;4.80;99.90
49242;DHT22;35079;52.704;13.814;2023-01-15T16:59:55;4.90;99.90
49242;DHT22;35079;52.704;13.814;2023-01-15T17:02:21;4.90;99.90
49242;DHT22;35079;52.704;13.814;2023-01-15T17:04:47;4.80;99.90
49242;DHT22;35079;52.704;13.814;2023-01-15T17:07:22;4.70;99.90
49242;DHT22;35079;52.704;13.814;2023-01-15T17:09:55;4.70;99.90
49242;DHT22;35079;52.704;13.814;2023-01-15T17:17:43;4.60;99.90
49242;DHT22;35079;52.704;13.814;2023-01-15T17:20:10;4.70;99.90
49242;DHT22;35079;52.704;13.814;2023-01-15T17:22:40;4.70;99.90
49242;DHT22;35079;52.704;13.814;2023-01-15T17:25:26;4.60;99.90
49242;DHT22;35079;52.704;13.814;2023-01-15T17:27:53;4.60;99.90
49242;DHT22;35079;52.704;13.814;2023-01-15T17:30:43;4.70;99.90
49242;DHT22;35079;52.704;13.814;2023-01-15T17:33:12;4.60;99.90
49242;DHT22;35079;52.704;13.814;2023-01-15T17:35:38;4.70;99.90
49242;DHT22;35079;52.704;13.814;2023-01-15T17:38:09;4.50;99.90
49242;DHT22;35079;52.704;13.814;2023-01-15T17:40:36;4.40;99.90
49242;DHT22;35079;52.704;13.814;2023-01-15T17:43:03;4.60;99.90
49242;DHT22;35079;52.704;13.814;2023-01-15T17:45:30;4.50;99.90
49242;DHT22;35079;52.704;13.814;2023-01-15T17:47:57;4.50;99.90
49242;DHT22;35079;52.704;13.814;2023-01-15T17:53:50;4.50;99.90
49242;DHT22;35079;52.704;13.814;2023-01-15T17:56:15;4.40;99.90
49242;DHT22;35079;52.704;13.814;2023-01-15T17:59:18;4.40;99.90
49242;DHT22;35079;52.704;13.814;2023-01-15T18:02:04;4.40;99.90